Aberdeen, Pennsylvania
Current Conditions -  °F | °C
As of 10:56 AM on Friday 28 Nov 2014 (Local Time) from KMDT Reporting Station
Overcast Overcast  
Wind Chill: 25°   Ceiling: 5000
Heat Index: 34°   Visibility: 10mi
Dew Point: 17°   Wind: 12mph
Humidity: 50%   Direction: 300°WNW
Pressure: 30.27"   Gusts: NA
Location:  40.1674°N, 76.6045°W
Report Text: KMDT 281556Z 30010KT 10SM OVC050 01/M08 A3027 RMK AO2 SLP255 T00111083
Loading
Personal Weather Stations






























Interactive Weather Map New forecast layout! Learn more

10-Day Weather Forecast

Advertisements
Track Severe Weather on mobile